sensor_id;sensor_type;location;lat;lon;timestamp;P1;durP1;ratioP1;P2;durP2;ratioP2
8777;SDS011;4425;50.872;4.712;2022-10-03T00:01:00;16.02;;;7.25;;
8777;SDS011;4425;50.872;4.712;2022-10-03T00:03:51;14.82;;;7.35;;
8777;SDS011;4425;50.872;4.712;2022-10-03T00:06:33;15.20;;;7.40;;
8777;SDS011;4425;50.872;4.712;2022-10-03T00:09:13;13.50;;;7.07;;
8777;SDS011;4425;50.872;4.712;2022-10-03T00:11:54;15.00;;;7.97;;
8777;SDS011;4425;50.872;4.712;2022-10-03T00:14:31;12.05;;;7.40;;
8777;SDS011;4425;50.872;4.712;2022-10-03T00:17:09;13.85;;;7.20;;
8777;SDS011;4425;50.872;4.712;2022-10-03T00:19:44;17.65;;;7.72;;
8777;SDS011;4425;50.872;4.712;2022-10-03T00:22:21;12.75;;;7.68;;
8777;SDS011;4425;50.872;4.712;2022-10-03T00:25:01;13.45;;;7.72;;
8777;SDS011;4425;50.872;4.712;2022-10-03T00:27:41;15.68;;;7.88;;
8777;SDS011;4425;50.872;4.712;2022-10-03T00:30:14;13.23;;;7.53;;
8777;SDS011;4425;50.872;4.712;2022-10-03T00:32:56;12.80;;;7.30;;
8777;SDS011;4425;50.872;4.712;2022-10-03T00:35:41;13.82;;;6.70;;
8777;SDS011;4425;50.872;4.712;2022-10-03T00:38:28;12.50;;;6.65;;
8777;SDS011;4425;50.872;4.712;2022-10-03T00:41:22;14.57;;;6.97;;
8777;SDS011;4425;50.872;4.712;2022-10-03T00:44:22;13.15;;;7.32;;
8777;SDS011;4425;50.872;4.712;2022-10-03T00:47:16;11.55;;;7.00;;
8777;SDS011;4425;50.872;4.712;2022-10-03T00:53:12;12.25;;;6.85;;
8777;SDS011;4425;50.872;4.712;2022-10-03T00:55:54;8.55;;;6.10;;
8777;SDS011;4425;50.872;4.712;2022-10-03T00:58:50;14.13;;;6.57;;
8777;SDS011;4425;50.872;4.712;2022-10-03T01:01:32;12.35;;;6.25;;
8777;SDS011;4425;50.872;4.712;2022-10-03T01:04:14;9.73;;;6.45;;
8777;SDS011;4425;50.872;4.712;2022-10-03T01:07:02;6.65;;;5.70;;
8777;SDS011;4425;50.872;4.712;2022-10-03T01:09:47;11.48;;;5.78;;
8777;SDS011;4425;50.872;4.712;2022-10-03T01:12:28;11.10;;;6.10;;
8777;SDS011;4425;50.872;4.712;2022-10-03T01:15:18;13.82;;;6.22;;
8777;SDS011;4425;50.872;4.712;2022-10-03T01:17:57;9.90;;;6.38;;
8777;SDS011;4425;50.872;4.712;2022-10-03T01:20:44;11.85;;;6.75;;
8777;SDS011;4425;50.872;4.712;2022-10-03T01:32:29;10.90;;;7.82;;
8777;SDS011;4425;50.872;4.712;2022-10-03T01:35:06;8.38;;;7.47;;
8777;SDS011;4425;50.872;4.712;2022-10-03T01:37:46;9.45;;;7.35;;
8777;SDS011;4425;50.872;4.712;2022-10-03T01:40:20;8.75;;;7.28;;
8777;SDS011;4425;50.872;4.712;2022-10-03T01:42:54;12.20;;;7.95;;
8777;SDS011;4425;50.872;4.712;2022-10-03T01:45:34;11.23;;;7.97;;
8777;SDS011;4425;50.872;4.712;2022-10-03T01:48:13;10.45;;;7.78;;
8777;SDS011;4425;50.872;4.712;2022-10-03T01:50:50;10.45;;;7.75;;
8777;SDS011;4425;50.872;4.712;2022-10-03T01:53:25;8.85;;;7.57;;
8777;SDS011;4425;50.872;4.712;2022-10-03T01:56:03;9.97;;;7.30;;
8777;SDS011;4425;50.872;4.712;2022-10-03T01:58:39;10.07;;;7.40;;
8777;SDS011;4425;50.872;4.712;2022-10-03T02:01:20;11.77;;;7.45;;
8777;SDS011;4425;50.872;4.712;2022-10-03T02:03:53;14.68;;;7.40;;
8777;SDS011;4425;50.872;4.712;2022-10-03T02:06:31;10.35;;;7.20;;
8777;SDS011;4425;50.872;4.712;2022-10-03T02:09:08;9.00;;;7.23;;
8777;SDS011;4425;50.872;4.712;2022-10-03T02:11:51;10.13;;;6.70;;
8777;SDS011;4425;50.872;4.712;2022-10-03T02:14:30;11.63;;;7.20;;
8777;SDS011;4425;50.872;4.712;2022-10-03T02:17:04;10.32;;;6.97;;
8777;SDS011;4425;50.872;4.712;2022-10-03T02:19:40;11.13;;;6.70;;
8777;SDS011;4425;50.872;4.712;2022-10-03T02:22:14;11.68;;;7.50;;
8777;SDS011;4425;50.872;4.712;2022-10-03T02:24:57;9.23;;;7.05;;
8777;SDS011;4425;50.872;4.712;2022-10-03T02:27:51;13.25;;;7.47;;
8777;SDS011;4425;50.872;4.712;2022-10-03T02:30:45;10.10;;;7.13;;
8777;SDS011;4425;50.872;4.712;2022-10-03T02:36:38;11.77;;;7.20;;
8777;SDS011;4425;50.872;4.712;2022-10-03T02:39:29;13.70;;;7.80;;
8777;SDS011;4425;50.872;4.712;2022-10-03T03:00:33;13.80;;;7.90;;
8777;SDS011;4425;50.872;4.712;2022-10-03T03:03:19;14.40;;;7.88;;
8777;SDS011;4425;50.872;4.712;2022-10-03T03:12:01;15.10;;;8.55;;
8777;SDS011;4425;50.872;4.712;2022-10-03T03:18:08;12.60;;;7.68;;
8777;SDS011;4425;50.872;4.712;2022-10-03T03:20:49;13.10;;;7.72;;
8777;SDS011;4425;50.872;4.712;2022-10-03T03:23:30;12.15;;;7.72;;
8777;SDS011;4425;50.872;4.712;2022-10-03T03:26:19;16.02;;;7.25;;
8777;SDS011;4425;50.872;4.712;2022-10-03T03:28:59;15.47;;;7.40;;
8777;SDS011;4425;50.872;4.712;2022-10-03T03:31:35;12.55;;;8.40;;
8777;SDS011;4425;50.872;4.712;2022-10-03T03:34:14;11.47;;;7.37;;
8777;SDS011;4425;50.872;4.712;2022-10-03T03:36:50;11.35;;;7.45;;
8777;SDS011;4425;50.872;4.712;2022-10-03T03:39:34;11.05;;;7.28;;
8777;SDS011;4425;50.872;4.712;2022-10-03T03:45:24;11.38;;;6.90;;
8777;SDS011;4425;50.872;4.712;2022-10-03T03:48:17;11.82;;;6.80;;
8777;SDS011;4425;50.872;4.712;2022-10-03T03:51:06;13.32;;;7.10;;
8777;SDS011;4425;50.872;4.712;2022-10-03T03:53:49;11.65;;;7.28;;
8777;SDS011;4425;50.872;4.712;2022-10-03T03:59:57;10.07;;;6.85;;
8777;SDS011;4425;50.872;4.712;2022-10-03T04:02:38;11.10;;;7.20;;
8777;SDS011;4425;50.872;4.712;2022-10-03T04:05:30;10.10;;;6.80;;
8777;SDS011;4425;50.872;4.712;2022-10-03T04:08:11;8.65;;;6.95;;
8777;SDS011;4425;50.872;4.712;2022-10-03T04:10:57;8.85;;;6.70;;
8777;SDS011;4425;50.872;4.712;2022-10-03T04:13:40;10.15;;;7.20;;
8777;SDS011;4425;50.872;4.712;2022-10-03T04:16:30;8.98;;;6.97;;
8777;SDS011;4425;50.872;4.712;2022-10-03T04:19:31;8.97;;;7.30;;
8777;SDS011;4425;50.872;4.712;2022-10-03T04:22:13;11.65;;;7.50;;
8777;SDS011;4425;50.872;4.712;2022-10-03T04:31:02;8.52;;;6.78;;
8777;SDS011;4425;50.872;4.712;2022-10-03T04:33:50;8.98;;;6.90;;
8777;SDS011;4425;50.872;4.712;2022-10-03T04:39:41;9.07;;;7.00;;
8777;SDS011;4425;50.872;4.712;2022-10-03T04:42:22;11.13;;;9.23;;
8777;SDS011;4425;50.872;4.712;2022-10-03T04:45:08;8.90;;;7.38;;
8777;SDS011;4425;50.872;4.712;2022-10-03T04:47:43;10.18;;;6.97;;
8777;SDS011;4425;50.872;4.712;2022-10-03T04:50:20;9.35;;;6.82;;
8777;SDS011;4425;50.872;4.712;2022-10-03T04:52:58;9.43;;;7.10;;
8777;SDS011;4425;50.872;4.712;2022-10-03T04:55:39;11.43;;;7.30;;
8777;SDS011;4425;50.872;4.712;2022-10-03T04:58:14;9.43;;;7.03;;
8777;SDS011;4425;50.872;4.712;2022-10-03T05:00:54;10.82;;;6.95;;
8777;SDS011;4425;50.872;4.712;2022-10-03T05:03:32;8.88;;;6.82;;
8777;SDS011;4425;50.872;4.712;2022-10-03T05:06:14;10.68;;;7.43;;
8777;SDS011;4425;50.872;4.712;2022-10-03T05:08:53;7.72;;;7.03;;
8777;SDS011;4425;50.872;4.712;2022-10-03T05:11:28;11.10;;;7.43;;
8777;SDS011;4425;50.872;4.712;2022-10-03T05:14:08;9.25;;;7.20;;
8777;SDS011;4425;50.872;4.712;2022-10-03T05:16:39;26.20;;;8.32;;
8777;SDS011;4425;50.872;4.712;2022-10-03T05:22:20;16.77;;;7.82;;
8777;SDS011;4425;50.872;4.712;2022-10-03T05:25:03;28.95;;;9.02;;
8777;SDS011;4425;50.872;4.712;2022-10-03T05:27:47;18.88;;;8.38;;
8777;SDS011;4425;50.872;4.712;2022-10-03T05:30:19;18.52;;;8.50;;
8777;SDS011;4425;50.872;4.712;2022-10-03T05:33:01;10.55;;;7.68;;
8777;SDS011;4425;50.872;4.712;2022-10-03T05:35:34;11.93;;;7.82;;
8777;SDS011;4425;50.872;4.712;2022-10-03T05:38:25;9.52;;;8.02;;
8777;SDS011;4425;50.872;4.712;2022-10-03T05:41:17;14.48;;;8.23;;
8777;SDS011;4425;50.872;4.712;2022-10-03T05:43:54;9.13;;;7.53;;
8777;SDS011;4425;50.872;4.712;2022-10-03T05:46:37;11.75;;;8.32;;
8777;SDS011;4425;50.872;4.712;2022-10-03T05:49:16;12.83;;;10.30;;
8777;SDS011;4425;50.872;4.712;2022-10-03T05:52:04;14.30;;;8.70;;
8777;SDS011;4425;50.872;4.712;2022-10-03T05:54:58;13.43;;;8.00;;
8777;SDS011;4425;50.872;4.712;2022-10-03T05:57:49;9.77;;;7.35;;
8777;SDS011;4425;50.872;4.712;2022-10-03T06:00:48;16.48;;;7.38;;
8777;SDS011;4425;50.872;4.712;2022-10-03T06:03:44;11.15;;;7.10;;
8777;SDS011;4425;50.872;4.712;2022-10-03T06:06:26;10.18;;;7.25;;
8777;SDS011;4425;50.872;4.712;2022-10-03T06:12:07;9.25;;;7.18;;
8777;SDS011;4425;50.872;4.712;2022-10-03T06:17:47;12.70;;;7.97;;
8777;SDS011;4425;50.872;4.712;2022-10-03T06:23:46;16.98;;;8.50;;
8777;SDS011;4425;50.872;4.712;2022-10-03T06:29:57;14.40;;;8.32;;
8777;SDS011;4425;50.872;4.712;2022-10-03T06:32:53;30.75;;;11.18;;
8777;SDS011;4425;50.872;4.712;2022-10-03T06:35:53;31.80;;;11.20;;
8777;SDS011;4425;50.872;4.712;2022-10-03T06:42:09;45.42;;;14.30;;
8777;SDS011;4425;50.872;4.712;2022-10-03T06:45:04;49.60;;;13.43;;
8777;SDS011;4425;50.872;4.712;2022-10-03T06:47:54;19.60;;;10.15;;
8777;SDS011;4425;50.872;4.712;2022-10-03T06:50:38;33.25;;;11.23;;
8777;SDS011;4425;50.872;4.712;2022-10-03T06:53:35;22.45;;;10.00;;
8777;SDS011;4425;50.872;4.712;2022-10-03T07:02:45;16.00;;;9.70;;
8777;SDS011;4425;50.872;4.712;2022-10-03T07:11:59;46.47;;;13.70;;
8777;SDS011;4425;50.872;4.712;2022-10-03T07:15:06;33.30;;;10.93;;
8777;SDS011;4425;50.872;4.712;2022-10-03T07:21:20;25.35;;;9.15;;
8777;SDS011;4425;50.872;4.712;2022-10-03T07:24:02;21.50;;;7.88;;
8777;SDS011;4425;50.872;4.712;2022-10-03T07:26:54;18.02;;;7.78;;
8777;SDS011;4425;50.872;4.712;2022-10-03T07:29:49;28.45;;;8.63;;
8777;SDS011;4425;50.872;4.712;2022-10-03T07:32:36;23.45;;;7.97;;
8777;SDS011;4425;50.872;4.712;2022-10-03T07:35:23;17.73;;;7.00;;
8777;SDS011;4425;50.872;4.712;2022-10-03T07:41:26;12.30;;;6.70;;
8777;SDS011;4425;50.872;4.712;2022-10-03T07:44:21;10.98;;;6.90;;
8777;SDS011;4425;50.872;4.712;2022-10-03T07:47:26;10.70;;;6.65;;
8777;SDS011;4425;50.872;4.712;2022-10-03T07:50:28;11.05;;;6.60;;
8777;SDS011;4425;50.872;4.712;2022-10-03T07:53:21;12.48;;;6.85;;
8777;SDS011;4425;50.872;4.712;2022-10-03T07:56:20;14.95;;;6.80;;
8777;SDS011;4425;50.872;4.712;2022-10-03T08:05:39;11.68;;;6.55;;
8777;SDS011;4425;50.872;4.712;2022-10-03T08:08:23;21.80;;;8.03;;
8777;SDS011;4425;50.872;4.712;2022-10-03T08:11:24;34.05;;;9.95;;
8777;SDS011;4425;50.872;4.712;2022-10-03T08:14:06;18.20;;;7.45;;
8777;SDS011;4425;50.872;4.712;2022-10-03T08:16:50;11.98;;;6.30;;
8777;SDS011;4425;50.872;4.712;2022-10-03T08:19:37;10.45;;;5.95;;
8777;SDS011;4425;50.872;4.712;2022-10-03T08:22:30;9.43;;;6.18;;
8777;SDS011;4425;50.872;4.712;2022-10-03T08:25:27;10.20;;;6.38;;
8777;SDS011;4425;50.872;4.712;2022-10-03T08:31:24;13.43;;;7.10;;
8777;SDS011;4425;50.872;4.712;2022-10-03T08:37:05;10.75;;;6.60;;
8777;SDS011;4425;50.872;4.712;2022-10-03T08:46:19;12.57;;;6.82;;
8777;SDS011;4425;50.872;4.712;2022-10-03T08:49:10;15.45;;;6.97;;
8777;SDS011;4425;50.872;4.712;2022-10-03T08:51:51;14.63;;;6.78;;
8777;SDS011;4425;50.872;4.712;2022-10-03T08:57:22;11.38;;;6.60;;
8777;SDS011;4425;50.872;4.712;2022-10-03T09:00:15;14.30;;;6.97;;
8777;SDS011;4425;50.872;4.712;2022-10-03T09:05:59;14.52;;;6.30;;
8777;SDS011;4425;50.872;4.712;2022-10-03T09:14:59;17.00;;;6.57;;
8777;SDS011;4425;50.872;4.712;2022-10-03T09:20:54;15.70;;;7.25;;
8777;SDS011;4425;50.872;4.712;2022-10-03T09:27:02;14.02;;;6.32;;
8777;SDS011;4425;50.872;4.712;2022-10-03T09:48:11;11.87;;;4.60;;
8777;SDS011;4425;50.872;4.712;2022-10-03T09:51:13;8.68;;;4.10;;
8777;SDS011;4425;50.872;4.712;2022-10-03T09:57:08;8.88;;;3.80;;
8777;SDS011;4425;50.872;4.712;2022-10-03T10:00:02;9.97;;;3.50;;
8777;SDS011;4425;50.872;4.712;2022-10-03T10:06:02;9.57;;;3.85;;
8777;SDS011;4425;50.872;4.712;2022-10-03T10:08:55;11.60;;;4.00;;
8777;SDS011;4425;50.872;4.712;2022-10-03T10:11:57;11.63;;;4.05;;
8777;SDS011;4425;50.872;4.712;2022-10-03T10:14:52;9.10;;;3.00;;
8777;SDS011;4425;50.872;4.712;2022-10-03T10:24:10;10.60;;;3.50;;
8777;SDS011;4425;50.872;4.712;2022-10-03T10:30:02;7.85;;;2.95;;
8777;SDS011;4425;50.872;4.712;2022-10-03T10:35:42;6.65;;;2.63;;
8777;SDS011;4425;50.872;4.712;2022-10-03T10:45:10;8.38;;;2.88;;
8777;SDS011;4425;50.872;4.712;2022-10-03T10:51:40;7.25;;;2.67;;
8777;SDS011;4425;50.872;4.712;2022-10-03T10:58:10;6.83;;;2.60;;
8777;SDS011;4425;50.872;4.712;2022-10-03T11:01:29;7.55;;;2.78;;
8777;SDS011;4425;50.872;4.712;2022-10-03T11:04:19;9.00;;;2.83;;
8777;SDS011;4425;50.872;4.712;2022-10-03T11:07:55;8.25;;;3.10;;
8777;SDS011;4425;50.872;4.712;2022-10-03T11:10:52;6.25;;;2.67;;
8777;SDS011;4425;50.872;4.712;2022-10-03T11:13:47;11.00;;;3.45;;
8777;SDS011;4425;50.872;4.712;2022-10-03T11:17:00;8.63;;;2.60;;
8777;SDS011;4425;50.872;4.712;2022-10-03T11:20:19;7.80;;;2.33;;
8777;SDS011;4425;50.872;4.712;2022-10-03T11:26:37;4.80;;;2.33;;
8777;SDS011;4425;50.872;4.712;2022-10-03T11:32:36;4.50;;;2.30;;
8777;SDS011;4425;50.872;4.712;2022-10-03T11:38:46;5.13;;;2.50;;
8777;SDS011;4425;50.872;4.712;2022-10-03T11:41:20;9.38;;;2.78;;
8777;SDS011;4425;50.872;4.712;2022-10-03T11:44:00;6.05;;;2.20;;
8777;SDS011;4425;50.872;4.712;2022-10-03T11:46:45;6.82;;;2.47;;
8777;SDS011;4425;50.872;4.712;2022-10-03T11:52:25;7.22;;;2.72;;
8777;SDS011;4425;50.872;4.712;2022-10-03T11:55:02;6.82;;;2.67;;
8777;SDS011;4425;50.872;4.712;2022-10-03T11:57:39;7.18;;;2.60;;
8777;SDS011;4425;50.872;4.712;2022-10-03T12:00:11;3.95;;;2.30;;
8777;SDS011;4425;50.872;4.712;2022-10-03T12:02:54;5.35;;;2.42;;
8777;SDS011;4425;50.872;4.712;2022-10-03T12:05:49;5.43;;;2.60;;
8777;SDS011;4425;50.872;4.712;2022-10-03T12:08:43;9.20;;;2.57;;
8777;SDS011;4425;50.872;4.712;2022-10-03T12:11:22;7.60;;;3.08;;
8777;SDS011;4425;50.872;4.712;2022-10-03T12:17:00;5.93;;;2.25;;
8777;SDS011;4425;50.872;4.712;2022-10-03T12:19:35;7.43;;;2.50;;
8777;SDS011;4425;50.872;4.712;2022-10-03T12:22:16;7.53;;;2.70;;
8777;SDS011;4425;50.872;4.712;2022-10-03T12:24:51;7.70;;;2.28;;
8777;SDS011;4425;50.872;4.712;2022-10-03T12:27:27;9.27;;;2.65;;
8777;SDS011;4425;50.872;4.712;2022-10-03T12:30:01;8.98;;;2.70;;
8777;SDS011;4425;50.872;4.712;2022-10-03T12:32:38;5.72;;;2.50;;
8777;SDS011;4425;50.872;4.712;2022-10-03T12:35:22;6.85;;;2.47;;
8777;SDS011;4425;50.872;4.712;2022-10-03T12:38:09;7.80;;;2.50;;
8777;SDS011;4425;50.872;4.712;2022-10-03T12:40:52;6.37;;;2.33;;
8777;SDS011;4425;50.872;4.712;2022-10-03T12:43:30;5.35;;;2.20;;
8777;SDS011;4425;50.872;4.712;2022-10-03T12:46:08;5.53;;;2.28;;
8777;SDS011;4425;50.872;4.712;2022-10-03T12:48:43;6.65;;;2.42;;
8777;SDS011;4425;50.872;4.712;2022-10-03T12:51:20;7.07;;;2.50;;
8777;SDS011;4425;50.872;4.712;2022-10-03T12:54:02;6.07;;;2.10;;
8777;SDS011;4425;50.872;4.712;2022-10-03T12:56:40;3.58;;;2.22;;
8777;SDS011;4425;50.872;4.712;2022-10-03T12:59:12;7.50;;;2.40;;
8777;SDS011;4425;50.872;4.712;2022-10-03T13:01:57;9.00;;;2.28;;
8777;SDS011;4425;50.872;4.712;2022-10-03T13:04:50;6.05;;;3.08;;
8777;SDS011;4425;50.872;4.712;2022-10-03T13:07:30;5.13;;;2.40;;
8777;SDS011;4425;50.872;4.712;2022-10-03T13:10:14;4.70;;;2.30;;
8777;SDS011;4425;50.872;4.712;2022-10-03T13:15:37;6.07;;;2.60;;
8777;SDS011;4425;50.872;4.712;2022-10-03T13:21:12;5.47;;;2.25;;
8777;SDS011;4425;50.872;4.712;2022-10-03T13:23:44;5.32;;;2.30;;
8777;SDS011;4425;50.872;4.712;2022-10-03T13:26:19;4.27;;;1.97;;
8777;SDS011;4425;50.872;4.712;2022-10-03T13:29:12;5.70;;;2.45;;
8777;SDS011;4425;50.872;4.712;2022-10-03T13:31:51;4.50;;;2.20;;
8777;SDS011;4425;50.872;4.712;2022-10-03T13:34:26;4.70;;;2.15;;
8777;SDS011;4425;50.872;4.712;2022-10-03T13:36:58;4.82;;;2.38;;
8777;SDS011;4425;50.872;4.712;2022-10-03T13:39:34;4.03;;;2.03;;
8777;SDS011;4425;50.872;4.712;2022-10-03T13:42:13;7.50;;;2.50;;
8777;SDS011;4425;50.872;4.712;2022-10-03T13:44:46;6.53;;;2.63;;
8777;SDS011;4425;50.872;4.712;2022-10-03T13:47:27;7.90;;;3.30;;
8777;SDS011;4425;50.872;4.712;2022-10-03T13:50:02;9.38;;;3.55;;
8777;SDS011;4425;50.872;4.712;2022-10-03T13:52:35;8.70;;;3.90;;
8777;SDS011;4425;50.872;4.712;2022-10-03T14:01:08;11.75;;;4.18;;
8777;SDS011;4425;50.872;4.712;2022-10-03T14:03:54;9.13;;;4.10;;
8777;SDS011;4425;50.872;4.712;2022-10-03T14:06:35;9.02;;;4.30;;
8777;SDS011;4425;50.872;4.712;2022-10-03T14:09:14;9.95;;;4.00;;
8777;SDS011;4425;50.872;4.712;2022-10-03T14:11:55;7.45;;;3.90;;
8777;SDS011;4425;50.872;4.712;2022-10-03T14:14:43;10.40;;;4.20;;
8777;SDS011;4425;50.872;4.712;2022-10-03T14:17:23;9.98;;;3.97;;
8777;SDS011;4425;50.872;4.712;2022-10-03T14:20:03;13.85;;;4.35;;
8777;SDS011;4425;50.872;4.712;2022-10-03T14:25:27;7.55;;;3.78;;
8777;SDS011;4425;50.872;4.712;2022-10-03T14:27:59;8.85;;;3.80;;
8777;SDS011;4425;50.872;4.712;2022-10-03T14:30:35;7.32;;;3.53;;
8777;SDS011;4425;50.872;4.712;2022-10-03T14:33:17;6.95;;;4.03;;
8777;SDS011;4425;50.872;4.712;2022-10-03T14:35:56;7.35;;;3.80;;
8777;SDS011;4425;50.872;4.712;2022-10-03T14:38:47;7.88;;;3.30;;
8777;SDS011;4425;50.872;4.712;2022-10-03T14:41:36;9.40;;;3.47;;
8777;SDS011;4425;50.872;4.712;2022-10-03T14:44:15;9.07;;;3.70;;
8777;SDS011;4425;50.872;4.712;2022-10-03T14:46:47;8.02;;;3.40;;
8777;SDS011;4425;50.872;4.712;2022-10-03T14:49:19;7.38;;;3.30;;
8777;SDS011;4425;50.872;4.712;2022-10-03T14:51:51;7.80;;;3.75;;
8777;SDS011;4425;50.872;4.712;2022-10-03T14:54:23;8.57;;;3.38;;
8777;SDS011;4425;50.872;4.712;2022-10-03T14:56:53;8.55;;;3.38;;
8777;SDS011;4425;50.872;4.712;2022-10-03T14:59:21;8.97;;;3.67;;
8777;SDS011;4425;50.872;4.712;2022-10-03T15:01:55;7.57;;;2.88;;
8777;SDS011;4425;50.872;4.712;2022-10-03T15:04:28;8.18;;;3.00;;
8777;SDS011;4425;50.872;4.712;2022-10-03T15:06:58;7.55;;;3.03;;
8777;SDS011;4425;50.872;4.712;2022-10-03T15:09:31;5.95;;;3.00;;
8777;SDS011;4425;50.872;4.712;2022-10-03T15:12:07;6.93;;;2.83;;
8777;SDS011;4425;50.872;4.712;2022-10-03T15:14:40;6.30;;;2.75;;
8777;SDS011;4425;50.872;4.712;2022-10-03T15:19:55;8.80;;;2.95;;
8777;SDS011;4425;50.872;4.712;2022-10-03T15:22:26;6.82;;;2.97;;
8777;SDS011;4425;50.872;4.712;2022-10-03T15:24:57;8.63;;;2.97;;
8777;SDS011;4425;50.872;4.712;2022-10-03T15:27:29;8.13;;;3.08;;
8777;SDS011;4425;50.872;4.712;2022-10-03T15:29:59;6.15;;;2.80;;
8777;SDS011;4425;50.872;4.712;2022-10-03T15:32:31;5.60;;;2.90;;
8777;SDS011;4425;50.872;4.712;2022-10-03T15:35:01;7.93;;;2.88;;
8777;SDS011;4425;50.872;4.712;2022-10-03T15:37:30;6.68;;;3.08;;
8777;SDS011;4425;50.872;4.712;2022-10-03T15:40:03;6.20;;;3.10;;
8777;SDS011;4425;50.872;4.712;2022-10-03T15:42:42;7.28;;;3.05;;
8777;SDS011;4425;50.872;4.712;2022-10-03T15:45:19;7.03;;;3.10;;
8777;SDS011;4425;50.872;4.712;2022-10-03T15:47:53;7.72;;;3.20;;
8777;SDS011;4425;50.872;4.712;2022-10-03T15:50:22;5.72;;;2.80;;
8777;SDS011;4425;50.872;4.712;2022-10-03T15:52:53;7.40;;;3.50;;
8777;SDS011;4425;50.872;4.712;2022-10-03T15:55:23;7.72;;;3.30;;
8777;SDS011;4425;50.872;4.712;2022-10-03T15:57:57;10.05;;;3.33;;
8777;SDS011;4425;50.872;4.712;2022-10-03T16:00:28;6.28;;;3.33;;
8777;SDS011;4425;50.872;4.712;2022-10-03T16:03:03;8.32;;;3.33;;
8777;SDS011;4425;50.872;4.712;2022-10-03T16:05:50;5.70;;;2.90;;
8777;SDS011;4425;50.872;4.712;2022-10-03T16:08:23;8.13;;;2.93;;
8777;SDS011;4425;50.872;4.712;2022-10-03T16:11:00;6.60;;;3.30;;
8777;SDS011;4425;50.872;4.712;2022-10-03T16:13:33;10.40;;;3.88;;
8777;SDS011;4425;50.872;4.712;2022-10-03T16:16:09;7.05;;;3.38;;
8777;SDS011;4425;50.872;4.712;2022-10-03T16:21:25;6.38;;;2.97;;
8777;SDS011;4425;50.872;4.712;2022-10-03T16:24:17;7.03;;;2.80;;
8777;SDS011;4425;50.872;4.712;2022-10-03T16:26:51;7.55;;;2.80;;
8777;SDS011;4425;50.872;4.712;2022-10-03T16:29:21;7.55;;;3.20;;
8777;SDS011;4425;50.872;4.712;2022-10-03T16:31:53;6.78;;;2.95;;
8777;SDS011;4425;50.872;4.712;2022-10-03T16:34:26;7.10;;;2.85;;
8777;SDS011;4425;50.872;4.712;2022-10-03T16:36:55;5.93;;;3.08;;
8777;SDS011;4425;50.872;4.712;2022-10-03T16:39:24;7.85;;;4.25;;
8777;SDS011;4425;50.872;4.712;2022-10-03T16:41:54;4.63;;;2.78;;
8777;SDS011;4425;50.872;4.712;2022-10-03T16:44:23;4.53;;;2.70;;
8777;SDS011;4425;50.872;4.712;2022-10-03T16:46:53;7.03;;;3.05;;
8777;SDS011;4425;50.872;4.712;2022-10-03T16:49:31;5.10;;;2.90;;
8777;SDS011;4425;50.872;4.712;2022-10-03T16:52:21;6.07;;;2.80;;
8777;SDS011;4425;50.872;4.712;2022-10-03T16:54:58;4.95;;;2.90;;
8777;SDS011;4425;50.872;4.712;2022-10-03T16:57:29;5.00;;;3.00;;
8777;SDS011;4425;50.872;4.712;2022-10-03T17:00:03;7.47;;;4.90;;
8777;SDS011;4425;50.872;4.712;2022-10-03T17:02:38;7.45;;;3.40;;
8777;SDS011;4425;50.872;4.712;2022-10-03T17:05:07;5.97;;;3.20;;
8777;SDS011;4425;50.872;4.712;2022-10-03T17:07:38;6.25;;;3.38;;
8777;SDS011;4425;50.872;4.712;2022-10-03T17:10:26;6.97;;;3.13;;
8777;SDS011;4425;50.872;4.712;2022-10-03T17:12:59;15.38;;;12.68;;
8777;SDS011;4425;50.872;4.712;2022-10-03T17:15:29;7.50;;;3.65;;
8777;SDS011;4425;50.872;4.712;2022-10-03T17:18:03;7.07;;;3.30;;
8777;SDS011;4425;50.872;4.712;2022-10-03T17:20:42;7.05;;;3.40;;
8777;SDS011;4425;50.872;4.712;2022-10-03T17:23:16;5.57;;;3.60;;
8777;SDS011;4425;50.872;4.712;2022-10-03T17:25:55;10.67;;;3.90;;
8777;SDS011;4425;50.872;4.712;2022-10-03T17:28:31;15.38;;;10.23;;
8777;SDS011;4425;50.872;4.712;2022-10-03T17:31:04;6.57;;;4.47;;
8777;SDS011;4425;50.872;4.712;2022-10-03T17:33:35;5.35;;;3.97;;
8777;SDS011;4425;50.872;4.712;2022-10-03T17:36:24;7.15;;;3.95;;
8777;SDS011;4425;50.872;4.712;2022-10-03T17:39:08;8.90;;;3.80;;
8777;SDS011;4425;50.872;4.712;2022-10-03T17:41:47;8.40;;;4.45;;
8777;SDS011;4425;50.872;4.712;2022-10-03T17:44:18;8.07;;;4.85;;
8777;SDS011;4425;50.872;4.712;2022-10-03T17:46:56;9.30;;;5.20;;
8777;SDS011;4425;50.872;4.712;2022-10-03T17:49:33;8.15;;;5.30;;
8777;SDS011;4425;50.872;4.712;2022-10-03T17:52:14;21.60;;;15.77;;
8777;SDS011;4425;50.872;4.712;2022-10-03T17:54:44;15.93;;;12.05;;
8777;SDS011;4425;50.872;4.712;2022-10-03T17:57:15;15.50;;;11.77;;
8777;SDS011;4425;50.872;4.712;2022-10-03T17:59:49;10.95;;;8.18;;
8777;SDS011;4425;50.872;4.712;2022-10-03T18:02:22;12.87;;;7.33;;
8777;SDS011;4425;50.872;4.712;2022-10-03T18:04:57;9.93;;;6.93;;
8777;SDS011;4425;50.872;4.712;2022-10-03T18:07:33;11.75;;;7.78;;
8777;SDS011;4425;50.872;4.712;2022-10-03T18:10:01;12.88;;;9.35;;
8777;SDS011;4425;50.872;4.712;2022-10-03T18:12:31;13.50;;;8.60;;
8777;SDS011;4425;50.872;4.712;2022-10-03T18:18:12;14.07;;;9.90;;
8777;SDS011;4425;50.872;4.712;2022-10-03T18:20:58;15.67;;;10.60;;
8777;SDS011;4425;50.872;4.712;2022-10-03T18:23:37;17.50;;;12.70;;
8777;SDS011;4425;50.872;4.712;2022-10-03T18:26:19;18.42;;;13.20;;
8777;SDS011;4425;50.872;4.712;2022-10-03T18:28:54;17.58;;;11.75;;
8777;SDS011;4425;50.872;4.712;2022-10-03T18:31:35;20.20;;;12.40;;
8777;SDS011;4425;50.872;4.712;2022-10-03T18:34:08;16.23;;;11.33;;
8777;SDS011;4425;50.872;4.712;2022-10-03T18:36:44;13.95;;;10.57;;
8777;SDS011;4425;50.872;4.712;2022-10-03T18:39:16;14.63;;;10.23;;
8777;SDS011;4425;50.872;4.712;2022-10-03T18:41:46;20.33;;;14.38;;
8777;SDS011;4425;50.872;4.712;2022-10-03T18:44:16;12.43;;;9.77;;
8777;SDS011;4425;50.872;4.712;2022-10-03T18:46:45;16.20;;;9.65;;
8777;SDS011;4425;50.872;4.712;2022-10-03T18:49:17;13.32;;;8.90;;
8777;SDS011;4425;50.872;4.712;2022-10-03T18:51:49;12.23;;;8.80;;
8777;SDS011;4425;50.872;4.712;2022-10-03T18:54:26;14.85;;;9.82;;
8777;SDS011;4425;50.872;4.712;2022-10-03T18:57:01;15.65;;;9.15;;
8777;SDS011;4425;50.872;4.712;2022-10-03T18:59:33;12.63;;;9.50;;
8777;SDS011;4425;50.872;4.712;2022-10-03T19:02:03;13.15;;;9.98;;
8777;SDS011;4425;50.872;4.712;2022-10-03T19:04:40;11.30;;;8.85;;
8777;SDS011;4425;50.872;4.712;2022-10-03T19:07:15;13.07;;;8.88;;
8777;SDS011;4425;50.872;4.712;2022-10-03T19:12:53;15.20;;;10.90;;
8777;SDS011;4425;50.872;4.712;2022-10-03T19:15:26;19.30;;;13.43;;
8777;SDS011;4425;50.872;4.712;2022-10-03T19:18:05;24.33;;;15.38;;
8777;SDS011;4425;50.872;4.712;2022-10-03T19:20:42;21.17;;;16.02;;
8777;SDS011;4425;50.872;4.712;2022-10-03T19:23:19;29.30;;;21.70;;
8777;SDS011;4425;50.872;4.712;2022-10-03T19:25:51;22.17;;;17.83;;
8777;SDS011;4425;50.872;4.712;2022-10-03T19:28:24;21.88;;;16.45;;
8777;SDS011;4425;50.872;4.712;2022-10-03T19:30:57;17.45;;;13.23;;
8777;SDS011;4425;50.872;4.712;2022-10-03T19:33:28;16.60;;;11.60;;
8777;SDS011;4425;50.872;4.712;2022-10-03T19:35:59;16.17;;;11.30;;
8777;SDS011;4425;50.872;4.712;2022-10-03T19:38:31;15.38;;;11.45;;
8777;SDS011;4425;50.872;4.712;2022-10-03T19:41:02;17.38;;;10.60;;
8777;SDS011;4425;50.872;4.712;2022-10-03T19:43:36;13.18;;;9.70;;
8777;SDS011;4425;50.872;4.712;2022-10-03T19:46:10;12.13;;;9.60;;
8777;SDS011;4425;50.872;4.712;2022-10-03T19:48:47;12.68;;;9.77;;
8777;SDS011;4425;50.872;4.712;2022-10-03T19:51:18;12.48;;;8.80;;
8777;SDS011;4425;50.872;4.712;2022-10-03T19:53:49;11.13;;;8.68;;
8777;SDS011;4425;50.872;4.712;2022-10-03T19:56:18;13.85;;;9.63;;
8777;SDS011;4425;50.872;4.712;2022-10-03T19:58:58;12.95;;;9.80;;
8777;SDS011;4425;50.872;4.712;2022-10-03T20:01:30;13.02;;;9.98;;
8777;SDS011;4425;50.872;4.712;2022-10-03T20:04:06;15.23;;;10.43;;
8777;SDS011;4425;50.872;4.712;2022-10-03T20:06:35;14.15;;;10.23;;
8777;SDS011;4425;50.872;4.712;2022-10-03T20:09:05;14.98;;;10.15;;
8777;SDS011;4425;50.872;4.712;2022-10-03T20:11:42;14.15;;;10.88;;
8777;SDS011;4425;50.872;4.712;2022-10-03T20:14:14;16.17;;;11.25;;
8777;SDS011;4425;50.872;4.712;2022-10-03T20:16:45;16.10;;;12.13;;